• Join FlightAware (Why Join?)
  • Login
  • US Flag 
10:42AM EDT


 

Airport Tracker/Info


-or-


 

Live Flight TrackerFlight Track Log ✈ AMF1026 ✈ 09-Jul-2013 ✈ KALB - KCVG

Flight Track Log - Related Links

Times and Time Zones

All times are in EDT time to prevent confusion due to time zone crossing. See the AMF1026 flight status page for this flight to view local times or setup timezone preferences in your user account.

Time Position Orientation Groundspeed Altitude Reporting Facility
EDT Latitude Longitude Course Direction KTS MPH feet Rate Location/Type
09:00PM 42.7319 -73.8081 192° South 130 150 1,000  Level Boston Center
09:01PM 42.7047 -73.8161 192° South 156 180 2,100 1,260 Climbing Boston Center
09:02PM 42.7269 -73.8758 297° West 196 226 3,300 1,200 Climbing Boston Center
09:03PM 42.7531 -73.9472 296° West 197 227 4,900 1,200 Climbing Boston Center
09:04PM 42.7458 -74.0119 261° West 174 200 6,100 1,140 Climbing Boston Center
09:05PM 42.7428 -74.0911 267° West 180 207 7,500 1,200 Climbing Boston Center
09:06PM 42.7417 -74.1647 269° West 180 207 8,800 1,140 Climbing Boston Center
09:07PM 42.7428 -74.2269 271° West 180 207 9,800 1,020 Climbing Boston Center
09:08PM 42.7414 -74.3089 269° West 175 201 11,100 960 Climbing Boston Center
09:09PM 42.7236 -74.3706 249° West 175 201 12,000 420 Climbing Boston Center
09:10PM 42.6975 -74.4375 242° Southwest 186 214 12,000  Level Boston Center
09:11PM 42.6733 -74.5128 246° West 220 253 12,000 -60 Level Boston Center
09:12PM 42.6489 -74.5911 247° West 226 260 11,900  Descending Boston Center
09:13PM 42.6264 -74.6750 250° West 234 269 12,000 420 Climbing Boston Center
09:14PM 42.6061 -74.7506 250° West 229 264 12,800 720 Climbing Boston Center
09:15PM 42.5922 -74.8147 254° West 211 243 13,500 540 Climbing Boston Center
09:16PM 42.5722 -74.8789 247° West 204 235 13,900 540 Climbing Boston Center
09:17PM 42.5519 -74.9428 247° West 194 223 14,600 660 Climbing Boston Center
09:18PM 42.5361 -75.0072 252° West 189 217 15,300 600 Climbing Boston Center
09:19PM 42.5181 -75.0683 248° West 189 217 15,900 180 Climbing Boston Center
09:22PM 42.4617 -75.2367 246° West 200 230 16,000  Climbing New York Center
09:23PM 42.4383 -75.3081 246° West 206 237 16,000  Level New York Center
09:24PM 42.4125 -75.3794 244° Southwest 212 244 16,100  Climbing New York Center
09:25PM 42.3908 -75.4536 248° West 212 244 16,000  Descending New York Center
09:26PM 42.3653 -75.5219 243° Southwest 212 244 16,100  Climbing New York Center
09:27PM 42.3417 -75.5903 245° Southwest 212 244 16,000 -60 Descending New York Center
09:28PM 42.3181 -75.6644 247° West 212 244 16,000  Level New York Center
09:29PM 42.2922 -75.7353 244° Southwest 212 244 16,000  Level New York Center
09:30PM 42.2683 -75.8092 246° West 212 244 16,000  Level New York Center
09:31PM 42.2403 -75.8797 242° Southwest 212 244 16,000  Level New York Center
09:32PM 42.2161 -75.9564 247° West 217 250 16,000  Level New York Center
09:33PM 42.1881 -76.0269 242° Southwest 217 250 16,000  Level New York Center
09:34PM 42.1619 -76.1003 244° Southwest 217 250 16,000  Level New York Center
09:35PM 42.1378 -76.1739 246° West 217 250 16,000  Level New York Center
09:36PM 42.1114 -76.2472 244° Southwest 217 250 16,000  Level New York Center
09:37PM 42.0850 -76.3261 246° West 223 257 16,000  Level New York Center
09:38PM 42.0583 -76.4019 245° Southwest 223 257 16,000  Level New York Center
09:39PM 42.0317 -76.4806 245° Southwest 234 269 16,000 -60 Level New York Center
09:40PM 42.0069 -76.5622 248° West 234 269 15,900  Descending New York Center
09:41PM 41.9803 -76.6408 245° Southwest 234 269 16,000  Climbing New York Center
09:42PM 41.9533 -76.7222 246° West 234 269 16,000  Level New York Center
09:43PM 41.9264 -76.8006 245° Southwest 234 269 16,000  Level New York Center
09:44PM 41.9017 -76.8792 247° West 234 269 16,000  Level New York Center
09:45PM 41.8744 -76.9603 246° West 234 269 16,000  Level New York Center
09:46PM 41.8478 -77.0331 244° Southwest 229 264 16,000  Level New York Center
09:47PM 41.8233 -77.1031 245° Southwest 229 264 16,000  Level New York Center
09:49PM 41.7706 -77.2700 247° West 234 269 16,000  Level Cleveland Center
09:50PM 41.7433 -77.3464 244° Southwest 234 269 16,000  Level Cleveland Center
09:51PM 41.7142 -77.4203 242° Southwest 234 269 16,000  Level Cleveland Center
09:52PM 41.6811 -77.5053 243° Southwest 234 269 16,000  Level Cleveland Center
09:53PM 41.6539 -77.5817 245° Southwest 234 269 16,000  Level Cleveland Center
09:54PM 41.6247 -77.6581 243° Southwest 234 269 16,000  Level Cleveland Center
09:55PM 41.5972 -77.7342 244° Southwest 234 269 16,000  Level Cleveland Center
09:56PM 41.5722 -77.8103 246° West 229 264 16,000  Level Cleveland Center
09:57PM 41.5447 -77.8892 245° Southwest 229 264 16,000  Level Cleveland Center
09:58PM 41.5172 -77.9625 243° Southwest 229 264 16,000  Level Cleveland Center
09:59PM 41.4900 -78.0411 245° Southwest 229 264 16,000  Level Cleveland Center
10:00PM 41.4644 -78.1169 246° West 229 264 16,000  Level Cleveland Center
10:01PM 41.4389 -78.1928 246° West 229 264 16,000  Level Cleveland Center
10:02PM 41.4156 -78.2683 248° West 229 264 16,000  Level Cleveland Center
10:03PM 41.3919 -78.3439 247° West 229 264 16,000  Level Cleveland Center
10:04PM 41.3747 -78.4192 253° West 229 264 16,000  Level Cleveland Center
10:05PM 41.3553 -78.5000 252° West 234 269 16,000  Level Cleveland Center
10:06PM 41.3336 -78.5728 248° West 229 264 16,000  Level Cleveland Center
10:07PM 41.3142 -78.6533 252° West 229 264 16,000  Level Cleveland Center
10:08PM 41.2906 -78.7289 247° West 229 264 16,000  Level Cleveland Center
10:09PM 41.2667 -78.8069 248° West 229 264 16,000  Level Cleveland Center
10:10PM 41.2408 -78.8822 245° Southwest 229 264 16,000  Level Cleveland Center
10:11PM 41.2189 -78.9572 249° West 229 264 16,000  Level Cleveland Center
10:12PM 41.1950 -79.0322 247° West 229 264 16,000  Level Cleveland Center
10:13PM 41.1667 -79.1158 246° West 229 264 16,000  Level Cleveland Center
10:14PM 41.1428 -79.1908 247° West 229 264 16,000  Level Cleveland Center
10:15PM 41.1247 -79.2489 248° West 229 264 16,000  Level Cleveland Center
10:16PM 41.1111 -79.3347 258° West 229 264 16,000  Level Cleveland Center
10:17PM 41.1014 -79.4094 260° West 224 258 16,000  Level Cleveland Center
10:18PM 41.0917 -79.4867 261° West 219 252 16,000  Level Cleveland Center
10:19PM 41.0653 -79.5669 246° West 219 252 16,000  Level Cleveland Center
10:20PM 41.0367 -79.6389 242° Southwest 225 259 16,000  Level Cleveland Center
10:21PM 41.0103 -79.7108 244° Southwest 220 253 16,000  Level Cleveland Center
10:22PM 40.9858 -79.7828 246° West 220 253 16,000  Level Cleveland Center
10:23PM 40.9592 -79.8544 244° Southwest 220 253 16,000  Level Cleveland Center
10:24PM 40.9325 -79.9264 244° Southwest 220 253 16,000  Level Cleveland Center
10:25PM 40.9036 -79.9981 242° Southwest 220 253 16,000  Level Cleveland Center
10:26PM 40.8750 -80.0725 243° Southwest 220 253 16,000  Level Cleveland Center
10:27PM 40.8481 -80.1467 244° Southwest 220 253 16,000  Level Cleveland Center
10:28PM 40.8253 -80.2236 249° West 220 253 16,000  Level Cleveland Center
10:29PM 40.8089 -80.2922 253° West 220 253 16,000  Level Cleveland Center
10:30PM 40.7883 -80.3664 250° West 220 253 16,000  Level Cleveland Center
10:31PM 40.7717 -80.4433 254° West 220 253 16,000  Level Cleveland Center
10:32PM 40.7489 -80.5147 247° West 220 253 16,000  Level Cleveland Center
10:33PM 40.7156 -80.5803 236° Southwest 220 253 16,000  Level Cleveland Center
10:34PM 40.6781 -80.6461 233° Southwest 226 260 16,000  Level Cleveland Center
10:35PM 40.6383 -80.7089 230° Southwest 226 260 16,000  Level Cleveland Center
10:36PM 40.6006 -80.7717 232° Southwest 210 242 16,000  Level Cleveland Center
10:37PM 40.5650 -80.8317 232° Southwest 210 242 16,000  Level Cleveland Center
10:38PM 40.5294 -80.8944 233° Southwest 215 247 16,000  Level Cleveland Center
10:39PM 40.4958 -80.9572 235° Southwest 221 254 16,000  Level Cleveland Center
10:40PM 40.4583 -81.0225 233° Southwest 221 254 16,000  Level Cleveland Center
10:41PM 40.4225 -81.0822 232° Southwest 221 254 16,000  Level Cleveland Center
10:43PM 40.3483 -81.2086 232° Southwest 211 243 16,000  Level Indianapolis Center
10:44PM 40.3103 -81.2675 230° Southwest 211 243 16,000  Level Indianapolis Center
10:45PM 40.2703 -81.3222 226° Southwest 209 241 16,000  Level Indianapolis Center
10:46PM 40.2817 -81.3903 282° West 215 247 16,000  Level Indianapolis Center
10:47PM 40.3161 -81.4536 306° West 211 243 16,000  Level Indianapolis Center
10:48PM 40.3497 -81.5161 305° West 209 241 16,000  Level Indianapolis Center
10:49PM 40.3689 -81.5878 289° West 208 239 16,000  Level Indianapolis Center
10:50PM 40.3867 -81.6597 288° West 206 237 16,000  Level Indianapolis Center
10:51PM 40.3911 -81.7339 275° West 202 232 16,000  Level Indianapolis Center
10:52PM 40.3836 -81.8083 262° West 204 235 16,000  Level Indianapolis Center
10:53PM 40.3661 -81.8786 252° West 203 234 16,000  Level Indianapolis Center
10:54PM 40.3375 -81.9411 239° Southwest 200 230 16,000  Level Indianapolis Center
10:55PM 40.3067 -82.0069 238° Southwest 207 238 16,000  Level Indianapolis Center
10:56PM 40.2778 -82.0728 240° Southwest 208 239 16,000  Level Indianapolis Center
10:57PM 40.2469 -82.1508 243° Southwest 206 237 16,000  Level Indianapolis Center
10:58PM 40.2178 -82.2158 240° Southwest 209 241 16,000  Level Indianapolis Center
10:59PM 40.1869 -82.2808 238° Southwest 212 244 16,000  Level Indianapolis Center
11:00PM 40.1536 -82.3453 236° Southwest 211 243 16,000  Level Indianapolis Center
11:01PM 40.1228 -82.4086 238° Southwest 208 239 16,000  Level Indianapolis Center
11:02PM 40.0903 -82.4733 237° Southwest 211 243 16,000  Level Indianapolis Center
11:03PM 40.0575 -82.5375 236° Southwest 212 244 16,000  Level Indianapolis Center
11:04PM 40.0253 -82.6017 237° Southwest 211 243 16,000  Level Indianapolis Center
11:05PM 39.9928 -82.6667 237° Southwest 213 245 16,000  Level Indianapolis Center
11:06PM 39.9603 -82.7322 237° Southwest 214 246 16,000  Level Indianapolis Center
11:07PM 39.9272 -82.7967 236° Southwest 214 246 16,000  Level Indianapolis Center
11:08PM 39.8953 -82.8628 238° Southwest 214 246 16,000  Level Indianapolis Center
11:09PM 39.8564 -82.9411 237° Southwest 218 251 16,000  Level Indianapolis Center
11:10PM 39.8225 -83.0069 236° Southwest 217 250 16,000  Level Indianapolis Center
11:11PM 39.7892 -83.0753 238° Southwest 221 254 16,000  Level Indianapolis Center
11:12PM 39.7550 -83.1411 236° Southwest 218 251 16,000  Level Indianapolis Center
11:13PM 39.7225 -83.2083 238° Southwest 218 251 16,000  Level Indianapolis Center
11:14PM 39.6897 -83.2744 237° Southwest 216 249 16,000  Level Indianapolis Center
11:15PM 39.6578 -83.3417 238° Southwest 216 249 16,000 -60 Level Indianapolis Center
11:16PM 39.6272 -83.4086 239° Southwest 213 245 15,900 -720 Descending Indianapolis Center
11:18PM 39.5911 -83.4811 237° Southwest 236 272 14,600 -1,080 Descending Indianapolis Center
11:19PM 39.5517 -83.5594 237° Southwest 255 293 13,700 -840 Descending Indianapolis Center
11:20PM 39.5169 -83.6378 240° Southwest 249 287 12,900 -840 Descending Indianapolis Center
11:21PM 39.4808 -83.7200 240° Southwest 258 297 12,000 -900 Descending Indianapolis Center
11:22PM 39.4431 -83.8039 240° Southwest 266 306 11,100 -540 Descending Indianapolis Center
11:23PM 39.4056 -83.8858 239° Southwest 264 304 11,000 -60 Descending Indianapolis Center
11:24PM 39.3706 -83.9633 240° Southwest 250 288 11,000  Level Indianapolis Center
11:25PM 39.3358 -84.0367 239° Southwest 239 275 11,000  Level Indianapolis Center
11:26PM 39.3014 -84.1125 240° Southwest 241 277 11,000  Level Indianapolis Center
11:27PM 39.2475 -84.1664 218° Southwest 250 288 11,000 -540 Level Indianapolis Center
11:28PM 39.1767 -84.2206 211° Southwest 250 288 10,000 -1,080 Descending Indianapolis Center
11:29PM 39.1072 -84.2708 209° Southwest 279 321 8,900 -840 Descending Indianapolis Center
11:30PM 39.0406 -84.3247 212° Southwest 279 321 8,300 -780 Descending Indianapolis Center
11:31PM 38.9778 -84.3794 214° Southwest 274 315 7,400 -1,020 Descending Indianapolis Center
11:32PM 38.9147 -84.4322 213° Southwest 269 310 6,300 -960 Descending Indianapolis Center
11:33PM 38.8594 -84.4825 215° Southwest 257 296 5,500 -660 Descending Indianapolis Center
11:34PM 38.8094 -84.5300 217° Southwest 225 259 5,000 -300 Descending Indianapolis Center
11:35PM 38.7953 -84.5953 254° West 204 235 5,000 -420 Level Indianapolis Center
11:36PM 38.8247 -84.6403 310° West 188 216 4,200 -840 Descending Indianapolis Center
11:37PM 38.8756 -84.6631 341° North 196 226 3,300 -600 Descending Indianapolis Center
11:38PM 38.9269 -84.6881 339° North 196 226 3,100 -240 Descending Indianapolis Center